Airfield :
LOGIN :

Register | Disclaimer

   EN    FR    IT 

 










Legend :    VFR   Marginal VFR   IFR   Intensive IFR   Very Intensive IFR
Visi :
Ceiling :
>= 8 km
>= 3000ft
5 to 8 km
1000 to 3000 ft
1500m to 5 km
500 to 1000 ft
800 to 1500m
200 to 500 ft
< 800m
< 200 ft
Symbols :   Thunderstorms  Fog  Heavy snow  Heavy precipitations  Wind > 20 kt
SIGMETs :     Misc.  Thunderstorms  Icing  Turbulence  Mountain Waves  Volcanic Ashes






- Airport Elevation : 1521 ft
- IATA code : NCY


LFLP - Annecy

CURRENT METAR :
  • 211530Z AUTO 25011KT 190V300 9999 FEW049 BKN100 20/10 Q1009 TEMPO VRB15G30KT 4000 SHRA BKN050CB

EXPIRED METARs :
  • 211500Z AUTO 25010KT 200V280 9999 FEW052 BKN098 21/11 Q1009 TEMPO VRB15G30KT 4000 SHRA BKN050CB
  • 211430Z AUTO 26009KT 220V280 9999 FEW056 21/10 Q1009 TEMPO VRB15G30KT 4000 SHRA BKN050CB
  • 211400Z AUTO 24010KT 190V300 9999 FEW058 21/10 Q1009 TEMPO VRB15G30KT 4000 SHRA BKN050CB
  • 211330Z AUTO 23009KT 190V280 9999 FEW054 SCT068 20/10 Q1009 TEMPO VRB15G30KT 4000 SHRA BKN050CB
  • 211300Z AUTO 23009KT 180V280 9999 FEW052 21/11 Q1009 TEMPO 4000 SHRA BKN040TCU
  • 211230Z AUTO 25009KT 190V280 9999 FEW047 20/10 Q1009 TEMPO 4000 SHRA BKN040TCU
  • 211200Z AUTO 23011KT 190V270 9999 FEW045 20/11 Q1009 TEMPO 4000 SHRA BKN040TCU
  • 211130Z AUTO 27008KT 220V320 9999 FEW044 19/10 Q1010 TEMPO 4000 SHRA BKN040TCU
  • 211100Z AUTO 23008KT 190V290 CAVOK 19/10 Q1010 TEMPO 4000 SHRA BKN040TCU

TAF TAF LFLP
Valid from the 21 at 15:00 until the 22 at 15:00 UTC


211400Z 2115/2215 23010KT CAVOK
PROB40
TEMPO 2115/2203 4000 SHRA BKN040TCU
PROB30
TEMPO 2115/2122 VRB15G30KT TSRA BKN050CB
TEMPO 2203/2209 VRB02KT BKN030
PROB40
TEMPO 2209/2215 4000 SHRA BKN040TCU



MET'MAP, your aeronautical weather chart ! - Copyright ORBIFLY December 2007 - Disclaimer

ORBIFLY MET'MAP TEAM :

Programming & Development : Alexandra Zaïnal
Original concept : Baudouin d'Aumeries
Technical & hardware support : Manuel Goepfert
Assistance : Marc-Olivier Méhu




SOURCES & CREDITS :

   NOAA